Time;durP1;ratioP1;P1;durP2;ratioP2;P2;SDS_P1;SDS_P2;PMS_P1;PMS_P2;Temp;Humidity;BMP_temperature;BMP_pressure;BME280_temperature;BME280_humidity;BME280_pressure;Samples;Min_cycle;Max_cycle;Signal;HPM_P1;HPM_P2
2023/08/17 00:00:31;;;;;;;5.03;3.92;;;;;;;;;;5054683;28;20334;-74
2023/08/17 00:02:57;;;;;;;4.72;3.17;;;;;;;;;;5063812;28;20115;-74
2023/08/17 00:05:23;;;;;;;6.95;4.03;;;;;;;;;;5061397;28;20074;-72
2023/08/17 00:07:49;;;;;;;4.28;3.15;;;;;;;;;;5063767;28;20029;-73
2023/08/17 00:10:15;;;;;;;4.68;3.63;;;;;;;;;;5054873;28;20024;-74
2023/08/17 00:12:41;;;;;;;4.55;3.38;;;;;;;;;;5066401;28;20089;-73
2023/08/17 00:15:08;;;;;;;6.07;3.28;;;;;;;;;;5061273;28;20126;-73
2023/08/17 00:17:34;;;;;;;4.05;3.65;;;;;;;;;;5061303;28;20028;-73
2023/08/17 00:20:00;;;;;;;5.03;3.50;;;;;;;;;;5063201;28;20366;-73
2023/08/17 00:22:26;;;;;;;4.20;3.20;;;;;;;;;;5059055;28;20194;-72
2023/08/17 00:24:52;;;;;;;4.53;3.58;;;;;;;;;;5058232;28;20036;-72
2023/08/17 00:27:18;;;;;;;5.28;3.47;;;;;;;;;;5062410;28;20165;-73
2023/08/17 00:29:44;;;;;;;3.42;2.90;;;;;;;;;;5074953;28;20032;-73
2023/08/17 00:32:11;;;;;;;4.65;2.80;;;;;;;;;;5068770;28;20025;-73
2023/08/17 00:34:37;;;;;;;4.70;2.80;;;;;;;;;;5063837;28;20406;-72
2023/08/17 00:37:03;;;;;;;5.03;3.15;;;;;;;;;;5061462;28;20035;-74
2023/08/17 00:39:29;;;;;;;3.42;2.53;;;;;;;;;;5068778;28;20035;-72
2023/08/17 00:41:55;;;;;;;3.58;2.90;;;;;;;;;;5059979;28;20394;-73
2023/08/17 00:44:21;;;;;;;4.22;2.80;;;;;;;;;;5054055;28;20116;-73
2023/08/17 00:46:47;;;;;;;3.85;2.85;;;;;;;;;;5069835;28;20493;-72
2023/08/17 00:49:14;;;;;;;3.67;2.83;;;;;;;;;;5059070;28;20427;-73
2023/08/17 00:51:40;;;;;;;3.28;2.63;;;;;;;;;;5056012;28;20388;-73
2023/08/17 00:54:06;;;;;;;4.05;2.75;;;;;;;;;;5063382;28;20127;-73
2023/08/17 00:56:32;;;;;;;3.72;2.63;;;;;;;;;;5058347;28;20031;-74
2023/08/17 00:58:59;;;;;;;3.60;2.78;;;;;;;;;;5058093;28;20029;-73
2023/08/17 01:01:25;;;;;;;4.05;2.20;;;;;;;;;;5061246;28;20587;-73
2023/08/17 01:03:51;;;;;;;4.25;2.63;;;;;;;;;;5050571;28;20017;-73
2023/08/17 01:06:18;;;;;;;4.35;2.65;;;;;;;;;;5046036;28;20579;-73
2023/08/17 01:08:45;;;;;;;3.28;2.65;;;;;;;;;;5061639;28;20031;-73
2023/08/17 01:11:14;;;;;;;3.75;2.67;;;;;;;;;;5053862;28;20598;-73
2023/08/17 01:13:43;;;;;;;4.22;2.60;;;;;;;;;;5053665;28;20032;-72
2023/08/17 01:16:14;;;;;;;5.85;2.50;;;;;;;;;;5059061;28;20511;-73
2023/08/17 01:18:41;;;;;;;4.93;2.60;;;;;;;;;;5059630;28;20037;-73
2023/08/17 01:21:08;;;;;;;3.55;2.85;;;;;;;;;;5059331;28;20054;-73
2023/08/17 01:23:35;;;;;;;3.50;2.53;;;;;;;;;;5060780;28;20028;-73
2023/08/17 01:26:01;;;;;;;2.83;2.22;;;;;;;;;;5058062;28;20082;-73
2023/08/17 01:28:27;;;;;;;3.53;2.78;;;;;;;;;;5059834;28;20107;-73
2023/08/17 01:31:06;;;;;;;3.88;2.80;;;;;;;;;;5070336;28;20404;-73
2023/08/17 01:33:41;;;;;;;4.30;3.10;;;;;;;;;;5074134;28;20143;-73
2023/08/17 01:36:19;;;;;;;3.55;3.03;;;;;;;;;;5065982;28;20447;-72
2023/08/17 01:38:46;;;;;;;4.75;2.83;;;;;;;;;;5053607;28;20028;-73
2023/08/17 01:41:15;;;;;;;4.07;2.90;;;;;;;;;;5063047;28;20566;-72
2023/08/17 01:43:45;;;;;;;4.07;3.15;;;;;;;;;;5058387;28;20017;-72
2023/08/17 01:46:15;;;;;;;6.03;3.35;;;;;;;;;;5057711;28;20025;-72
2023/08/17 01:48:41;;;;;;;5.85;3.30;;;;;;;;;;5061138;28;20029;-74
2023/08/17 01:51:08;;;;;;;5.95;3.05;;;;;;;;;;5058288;28;20036;-73
2023/08/17 01:53:34;;;;;;;3.38;2.90;;;;;;;;;;5057304;28;20131;-72
2023/08/17 01:56:00;;;;;;;5.88;3.17;;;;;;;;;;5063854;28;20067;-72
2023/08/17 01:58:26;;;;;;;4.43;2.72;;;;;;;;;;5054892;28;20043;-72
2023/08/17 02:00:52;;;;;;;3.53;3.20;;;;;;;;;;5070994;28;20028;-72
2023/08/17 02:03:18;;;;;;;6.43;3.35;;;;;;;;;;5053031;28;20040;-73
2023/08/17 02:05:47;;;;;;;4.82;3.22;;;;;;;;;;5058728;28;20028;-72
2023/08/17 02:08:14;;;;;;;4.45;3.35;;;;;;;;;;5053314;28;20040;-73
2023/08/17 02:10:40;;;;;;;4.63;3.55;;;;;;;;;;5065817;28;20458;-72
2023/08/17 02:13:06;;;;;;;5.95;3.25;;;;;;;;;;5052568;28;20025;-72
2023/08/17 02:15:32;;;;;;;5.65;3.45;;;;;;;;;;5069301;28;20032;-75
2023/08/17 02:18:01;;;;;;;5.63;3.40;;;;;;;;;;5063775;28;20036;-72
2023/08/17 02:20:27;;;;;;;5.20;3.45;;;;;;;;;;5056347;28;20025;-72
2023/08/17 02:22:54;;;;;;;5.45;3.40;;;;;;;;;;5069147;28;20020;-72
2023/08/17 02:25:20;;;;;;;5.60;3.58;;;;;;;;;;5053126;28;20063;-72
2023/08/17 02:27:46;;;;;;;5.25;3.65;;;;;;;;;;5042698;28;20609;-73
2023/08/17 02:30:12;;;;;;;6.32;3.33;;;;;;;;;;5052829;28;20063;-73
2023/08/17 02:32:39;;;;;;;4.32;3.55;;;;;;;;;;5060698;28;20056;-72
2023/08/17 02:35:05;;;;;;;3.90;3.22;;;;;;;;;;5047122;28;20507;-72
2023/08/17 02:37:31;;;;;;;4.88;3.60;;;;;;;;;;5061793;28;20036;-74
2023/08/17 02:39:58;;;;;;;4.38;3.33;;;;;;;;;;5060157;28;20029;-76
2023/08/17 02:42:24;;;;;;;5.70;3.55;;;;;;;;;;5062611;28;20052;-72
2023/08/17 02:44:50;;;;;;;5.55;3.58;;;;;;;;;;5067673;28;20016;-72
2023/08/17 02:47:19;;;;;;;6.13;3.38;;;;;;;;;;5056818;28;20027;-74
2023/08/17 02:49:45;;;;;;;4.50;3.33;;;;;;;;;;5062430;28;20028;-72
2023/08/17 02:52:11;;;;;;;5.40;3.03;;;;;;;;;;5066322;28;20029;-72
2023/08/17 02:54:37;;;;;;;4.35;3.42;;;;;;;;;;5061007;28;20640;-72
2023/08/17 02:57:03;;;;;;;4.82;2.70;;;;;;;;;;5050198;28;20439;-72
2023/08/17 02:59:30;;;;;;;6.55;3.13;;;;;;;;;;5060159;28;20438;-72
2023/08/17 03:01:57;;;;;;;4.68;2.88;;;;;;;;;;5061695;28;20052;-74
2023/08/17 03:04:24;;;;;;;4.05;2.55;;;;;;;;;;5045017;28;20469;-72
2023/08/17 03:06:50;;;;;;;3.90;2.95;;;;;;;;;;5050238;28;20056;-72
2023/08/17 03:09:16;;;;;;;3.97;2.70;;;;;;;;;;5058044;28;20060;-72
2023/08/17 03:11:42;;;;;;;3.75;2.30;;;;;;;;;;5057438;28;20056;-73
2023/08/17 03:14:08;;;;;;;4.38;2.88;;;;;;;;;;5051666;28;20028;-73
2023/08/17 03:16:34;;;;;;;3.15;2.75;;;;;;;;;;5044099;28;20520;-72
2023/08/17 03:19:01;;;;;;;3.22;2.30;;;;;;;;;;5053487;28;20562;-72
2023/08/17 03:21:27;;;;;;;5.35;2.55;;;;;;;;;;5055347;28;20024;-73
2023/08/17 03:23:53;;;;;;;2.55;2.20;;;;;;;;;;5052308;28;20495;-73
2023/08/17 03:26:19;;;;;;;4.72;3.30;;;;;;;;;;5059347;28;20418;-73
2023/08/17 03:28:45;;;;;;;2.70;2.40;;;;;;;;;;5055833;28;20057;-73
2023/08/17 03:31:11;;;;;;;5.55;2.83;;;;;;;;;;5055985;28;20032;-73
2023/08/17 03:33:37;;;;;;;2.75;2.38;;;;;;;;;;5060639;28;20028;-72
2023/08/17 03:36:04;;;;;;;5.13;2.70;;;;;;;;;;5052708;28;20518;-72
2023/08/17 03:38:30;;;;;;;4.05;2.72;;;;;;;;;;5050817;28;20028;-72
2023/08/17 03:40:56;;;;;;;5.07;2.92;;;;;;;;;;5066684;28;20028;-74
2023/08/17 03:43:22;;;;;;;4.53;2.50;;;;;;;;;;5061643;28;20135;-72
2023/08/17 03:45:48;;;;;;;3.22;2.42;;;;;;;;;;5065671;28;20070;-73
2023/08/17 03:48:14;;;;;;;3.33;2.75;;;;;;;;;;5061026;28;20033;-73
2023/08/17 03:50:41;;;;;;;3.40;2.67;;;;;;;;;;5067001;28;20093;-73
2023/08/17 03:53:07;;;;;;;3.15;2.50;;;;;;;;;;5060996;28;20029;-72
2023/08/17 03:55:33;;;;;;;3.47;2.50;;;;;;;;;;5065198;28;20063;-73
2023/08/17 03:57:59;;;;;;;3.38;2.78;;;;;;;;;;5047707;28;20071;-73
2023/08/17 04:00:25;;;;;;;4.55;2.78;;;;;;;;;;5059059;28;20059;-73
2023/08/17 04:02:51;;;;;;;5.40;2.88;;;;;;;;;;5067425;28;20107;-73
2023/08/17 04:05:17;;;;;;;4.55;3.00;;;;;;;;;;5059097;28;20020;-73
2023/08/17 04:07:44;;;;;;;4.30;3.15;;;;;;;;;;5052179;28;20514;-73
2023/08/17 04:10:10;;;;;;;5.20;3.45;;;;;;;;;;5058279;28;20487;-73
2023/08/17 04:12:36;;;;;;;4.50;2.90;;;;;;;;;;5062566;28;20375;-73
2023/08/17 04:15:02;;;;;;;4.68;3.53;;;;;;;;;;5069471;28;20265;-73
2023/08/17 04:17:28;;;;;;;6.00;3.40;;;;;;;;;;5072997;28;20056;-73
2023/08/17 04:19:54;;;;;;;4.57;3.70;;;;;;;;;;5058916;28;20110;-73
2023/08/17 04:22:21;;;;;;;6.13;3.78;;;;;;;;;;5066365;28;20123;-73
2023/08/17 04:24:47;;;;;;;5.18;3.42;;;;;;;;;;5052788;28;20148;-73
2023/08/17 04:27:14;;;;;;;5.25;4.22;;;;;;;;;;5051379;28;20032;-73
2023/08/17 04:29:40;;;;;;;7.28;3.42;;;;;;;;;;5055018;28;20370;-74
2023/08/17 04:32:06;;;;;;;6.70;4.38;;;;;;;;;;5058137;28;20488;-73
2023/08/17 04:34:32;;;;;;;4.95;3.95;;;;;;;;;;5077499;28;20497;-73
2023/08/17 04:36:58;;;;;;;4.28;3.30;;;;;;;;;;5061106;28;20059;-73
2023/08/17 04:39:25;;;;;;;5.85;3.40;;;;;;;;;;5058726;28;20500;-73
2023/08/17 04:41:51;;;;;;;5.65;3.35;;;;;;;;;;5051810;28;20071;-75
2023/08/17 04:44:17;;;;;;;7.50;4.03;;;;;;;;;;5053012;28;20025;-74
2023/08/17 04:46:43;;;;;;;5.43;3.67;;;;;;;;;;5055063;28;20024;-74
2023/08/17 04:49:09;;;;;;;7.65;4.38;;;;;;;;;;5051665;28;20090;-74
2023/08/17 04:51:36;;;;;;;6.65;4.47;;;;;;;;;;5055660;28;20036;-73
2023/08/17 04:54:02;;;;;;;9.38;4.85;;;;;;;;;;5058726;28;20021;-74
2023/08/17 04:56:28;;;;;;;8.05;4.93;;;;;;;;;;5056237;28;21011;-73
2023/08/17 04:58:54;;;;;;;8.32;5.10;;;;;;;;;;5070515;28;20028;-72
2023/08/17 05:01:20;;;;;;;9.02;5.53;;;;;;;;;;5052161;28;20037;-73
2023/08/17 05:03:46;;;;;;;6.80;4.38;;;;;;;;;;5058607;28;20029;-73
2023/08/17 05:06:13;;;;;;;7.63;5.03;;;;;;;;;;5046851;28;20020;-74
2023/08/17 05:08:39;;;;;;;5.45;4.15;;;;;;;;;;5057269;28;20028;-73
2023/08/17 05:11:05;;;;;;;7.30;4.55;;;;;;;;;;5051839;28;20571;-73
2023/08/17 05:13:31;;;;;;;9.05;4.93;;;;;;;;;;5053620;28;20029;-73
2023/08/17 05:15:57;;;;;;;6.32;4.57;;;;;;;;;;5060471;28;21083;-73
2023/08/17 05:18:23;;;;;;;7.47;4.20;;;;;;;;;;5053841;28;20386;-73
2023/08/17 05:20:49;;;;;;;6.53;4.43;;;;;;;;;;5057165;28;20037;-73
2023/08/17 05:23:16;;;;;;;9.15;4.50;;;;;;;;;;5057278;28;20108;-73
2023/08/17 05:25:42;;;;;;;6.80;4.75;;;;;;;;;;5054581;28;20134;-73
2023/08/17 05:28:08;;;;;;;14.02;4.68;;;;;;;;;;5055188;28;20021;-72
2023/08/17 05:30:34;;;;;;;6.75;4.50;;;;;;;;;;5060410;28;20602;-72
2023/08/17 05:33:00;;;;;;;7.72;4.40;;;;;;;;;;5049482;28;20029;-73
2023/08/17 05:35:26;;;;;;;8.27;4.70;;;;;;;;;;5046102;28;20531;-72
2023/08/17 05:37:52;;;;;;;4.82;3.70;;;;;;;;;;5060493;28;20263;-72
2023/08/17 05:40:18;;;;;;;7.97;4.15;;;;;;;;;;5063835;28;20032;-73
2023/08/17 05:42:45;;;;;;;5.75;4.15;;;;;;;;;;5057986;28;20119;-72
2023/08/17 05:45:11;;;;;;;5.97;4.13;;;;;;;;;;5062041;28;20070;-72
2023/08/17 05:47:37;;;;;;;5.82;4.40;;;;;;;;;;5055982;28;20024;-72
2023/08/17 05:50:03;;;;;;;7.45;3.97;;;;;;;;;;5053495;28;20090;-72
2023/08/17 05:52:30;;;;;;;8.20;4.15;;;;;;;;;;5061753;28;20028;-72
2023/08/17 05:54:56;;;;;;;8.15;4.15;;;;;;;;;;5058597;28;20028;-73
2023/08/17 05:57:22;;;;;;;6.32;3.58;;;;;;;;;;5053339;28;20032;-72
2023/08/17 05:59:48;;;;;;;6.80;3.78;;;;;;;;;;5057239;28;20144;-73
2023/08/17 06:02:14;;;;;;;5.75;3.83;;;;;;;;;;5055037;28;20108;-73
2023/08/17 06:04:41;;;;;;;6.78;3.97;;;;;;;;;;5055182;28;20244;-75
2023/08/17 06:07:07;;;;;;;4.45;3.78;;;;;;;;;;5057324;28;20058;-73
2023/08/17 06:09:33;;;;;;;5.72;3.70;;;;;;;;;;5050840;28;20036;-73
2023/08/17 06:11:59;;;;;;;7.35;4.93;;;;;;;;;;5057153;28;20056;-73
2023/08/17 06:14:25;;;;;;;5.07;3.45;;;;;;;;;;5058784;28;20047;-73
2023/08/17 06:16:51;;;;;;;4.70;3.45;;;;;;;;;;5054842;28;20560;-73
2023/08/17 06:19:17;;;;;;;8.20;4.10;;;;;;;;;;5062392;28;20062;-73
2023/08/17 06:21:44;;;;;;;8.68;3.95;;;;;;;;;;5054891;28;20040;-73
2023/08/17 06:24:10;;;;;;;5.57;4.07;;;;;;;;;;5055075;28;20013;-73
2023/08/17 06:26:36;;;;;;;4.53;3.05;;;;;;;;;;5050210;28;20079;-72
2023/08/17 06:29:02;;;;;;;5.25;3.10;;;;;;;;;;5052179;28;20479;-72
2023/08/17 06:31:28;;;;;;;7.10;3.47;;;;;;;;;;5049331;28;20068;-73
2023/08/17 06:33:58;;;;;;;5.65;2.78;;;;;;;;;;5048132;28;20114;-72
2023/08/17 06:36:24;;;;;;;5.18;3.38;;;;;;;;;;5065472;28;20113;-73
2023/08/17 06:38:50;;;;;;;5.13;2.90;;;;;;;;;;5053346;28;20052;-73
2023/08/17 06:41:17;;;;;;;3.85;2.90;;;;;;;;;;5049284;28;20035;-73
2023/08/17 06:43:43;;;;;;;3.58;2.72;;;;;;;;;;5050516;28;20032;-73
2023/08/17 06:46:09;;;;;;;5.70;2.90;;;;;;;;;;5054129;28;20154;-74
2023/08/17 06:48:35;;;;;;;3.03;2.50;;;;;;;;;;5051165;28;20029;-74
2023/08/17 06:51:04;;;;;;;7.03;3.88;;;;;;;;;;5050742;28;20445;-73
2023/08/17 06:53:30;;;;;;;7.38;2.53;;;;;;;;;;5043886;28;20386;-73
2023/08/17 06:55:56;;;;;;;6.43;2.75;;;;;;;;;;5048859;28;20032;-73
2023/08/17 06:58:22;;;;;;;4.72;2.60;;;;;;;;;;5057954;28;20052;-73
2023/08/17 07:00:49;;;;;;;7.55;3.17;;;;;;;;;;5049324;28;20393;-73
2023/08/17 07:03:16;;;;;;;4.30;2.38;;;;;;;;;;5048732;28;20527;-74
2023/08/17 07:05:42;;;;;;;6.18;2.80;;;;;;;;;;5056911;28;20021;-74
2023/08/17 07:08:08;;;;;;;3.08;2.30;;;;;;;;;;5051627;28;20646;-72
2023/08/17 07:10:35;;;;;;;3.42;2.45;;;;;;;;;;5050589;28;20161;-73
2023/08/17 07:13:03;;;;;;;3.85;2.55;;;;;;;;;;5052724;28;20040;-73
2023/08/17 07:15:32;;;;;;;4.85;2.85;;;;;;;;;;5045689;28;20435;-73
2023/08/17 07:17:58;;;;;;;3.40;2.22;;;;;;;;;;5050988;28;20031;-73
2023/08/17 07:20:24;;;;;;;3.10;2.30;;;;;;;;;;5048768;28;20090;-72
2023/08/17 07:22:50;;;;;;;4.25;2.45;;;;;;;;;;5053364;28;20524;-72
2023/08/17 07:25:17;;;;;;;3.90;2.30;;;;;;;;;;5054477;28;20435;-74
2023/08/17 07:27:43;;;;;;;4.95;2.33;;;;;;;;;;5045633;28;20056;-71
2023/08/17 07:30:10;;;;;;;4.65;2.42;;;;;;;;;;5076767;28;20039;-71
2023/08/17 07:32:36;;;;;;;2.50;2.30;;;;;;;;;;5048107;28;20552;-72
2023/08/17 07:35:03;;;;;;;3.38;2.10;;;;;;;;;;5044406;28;20116;-72
2023/08/17 07:37:33;;;;;;;5.05;2.40;;;;;;;;;;5046025;28;20483;-72
2023/08/17 07:40:00;;;;;;;5.35;2.15;;;;;;;;;;5049922;28;20490;-72
2023/08/17 07:42:26;;;;;;;4.30;2.25;;;;;;;;;;5048677;28;20073;-72
2023/08/17 07:44:52;;;;;;;3.28;2.20;;;;;;;;;;5042276;28;20582;-71
2023/08/17 07:47:19;;;;;;;3.28;2.20;;;;;;;;;;5050356;28;20025;-72
2023/08/17 07:49:45;;;;;;;3.67;2.10;;;;;;;;;;5052972;28;20068;-71
2023/08/17 07:52:11;;;;;;;4.85;2.35;;;;;;;;;;5053179;28;20461;-72
2023/08/17 07:54:37;;;;;;;5.57;3.17;;;;;;;;;;5056224;28;20032;-72
2023/08/17 07:57:03;;;;;;;3.03;2.40;;;;;;;;;;5063029;28;20033;-72
2023/08/17 07:59:30;;;;;;;3.70;1.98;;;;;;;;;;5059258;28;20029;-71
2023/08/17 08:01:56;;;;;;;4.15;2.38;;;;;;;;;;5063801;28;20476;-71
2023/08/17 08:04:22;;;;;;;3.88;2.05;;;;;;;;;;5053345;28;20117;-70
2023/08/17 08:06:48;;;;;;;4.15;2.20;;;;;;;;;;5056334;28;20322;-70
2023/08/17 08:09:14;;;;;;;3.75;2.67;;;;;;;;;;5063720;28;20518;-73
2023/08/17 08:11:40;;;;;;;3.30;2.20;;;;;;;;;;5052763;28;20024;-70
2023/08/17 08:14:07;;;;;;;3.35;2.80;;;;;;;;;;5052459;28;20663;-69
2023/08/17 08:16:33;;;;;;;4.85;1.98;;;;;;;;;;5054021;28;20047;-69
2023/08/17 08:18:59;;;;;;;3.20;2.20;;;;;;;;;;5054013;28;20054;-70
2023/08/17 08:21:27;;;;;;;2.30;2.10;;;;;;;;;;5056566;28;20446;-69
2023/08/17 08:23:53;;;;;;;2.92;2.28;;;;;;;;;;5051558;28;20021;-71
2023/08/17 08:26:19;;;;;;;6.10;2.78;;;;;;;;;;5054404;28;20025;-72
2023/08/17 08:28:46;;;;;;;3.70;2.35;;;;;;;;;;5051047;28;20031;-70
2023/08/17 08:31:12;;;;;;;2.83;1.88;;;;;;;;;;5054928;28;20032;-70
2023/08/17 08:33:38;;;;;;;5.25;2.10;;;;;;;;;;5048163;28;20132;-70
2023/08/17 08:36:05;;;;;;;3.13;2.10;;;;;;;;;;5050142;28;20048;-70
2023/08/17 08:38:32;;;;;;;5.97;2.30;;;;;;;;;;5055903;28;20603;-70
2023/08/17 08:40:59;;;;;;;2.50;2.13;;;;;;;;;;5061744;28;20032;-70
2023/08/17 08:43:25;;;;;;;2.88;2.20;;;;;;;;;;5053081;28;20036;-70
2023/08/17 08:45:52;;;;;;;2.38;2.00;;;;;;;;;;5047371;28;20025;-69
2023/08/17 08:48:19;;;;;;;5.65;2.30;;;;;;;;;;5049912;28;20328;-73
2023/08/17 08:50:47;;;;;;;5.03;1.98;;;;;;;;;;5042418;28;20035;-70
2023/08/17 08:53:20;;;;;;;4.85;2.20;;;;;;;;;;5055946;28;20144;-69
2023/08/17 08:55:49;;;;;;;3.65;2.20;;;;;;;;;;5050990;28;20468;-68
2023/08/17 08:58:19;;;;;;;3.47;2.20;;;;;;;;;;5066088;28;20461;-68
2023/08/17 09:00:48;;;;;;;4.50;2.30;;;;;;;;;;5054612;28;20120;-69
2023/08/17 09:03:17;;;;;;;6.22;2.30;;;;;;;;;;5053910;28;20122;-70
2023/08/17 09:05:48;;;;;;;4.30;2.10;;;;;;;;;;5056645;28;20551;-68
2023/08/17 09:08:15;;;;;;;2.42;2.00;;;;;;;;;;5057220;28;20056;-70
2023/08/17 09:10:42;;;;;;;3.72;2.30;;;;;;;;;;5050252;28;20029;-71
2023/08/17 09:13:08;;;;;;;2.50;2.22;;;;;;;;;;5058373;28;20369;-70
2023/08/17 09:15:35;;;;;;;4.03;2.28;;;;;;;;;;5048146;28;20024;-70
2023/08/17 09:18:02;;;;;;;3.97;2.17;;;;;;;;;;5048744;28;20024;-68
2023/08/17 09:20:38;;;;;;;4.72;2.42;;;;;;;;;;5068776;28;20035;-72
2023/08/17 09:23:05;;;;;;;3.58;2.33;;;;;;;;;;5052705;28;20070;-69
2023/08/17 09:25:34;;;;;;;3.60;2.03;;;;;;;;;;5052068;28;20499;-68
2023/08/17 09:28:09;;;;;;;2.50;2.10;;;;;;;;;;5059066;28;20028;-69
2023/08/17 09:30:58;;;;;;;3.75;2.33;;;;;;;;;;5032038;28;20043;-68
2023/08/17 09:33:25;;;;;;;4.88;2.45;;;;;;;;;;5042688;28;20547;-67
2023/08/17 09:35:52;;;;;;;2.75;2.10;;;;;;;;;;5040602;28;20147;-69
2023/08/17 09:38:19;;;;;;;4.18;2.42;;;;;;;;;;5041319;28;20067;-69
2023/08/17 09:40:46;;;;;;;5.88;2.20;;;;;;;;;;5043533;28;20662;-71
2023/08/17 09:43:13;;;;;;;3.30;2.38;;;;;;;;;;5049983;28;20507;-68
2023/08/17 09:45:39;;;;;;;2.85;2.50;;;;;;;;;;5064277;28;20052;-69
2023/08/17 09:48:08;;;;;;;5.60;2.75;;;;;;;;;;5048881;28;20555;-68
2023/08/17 09:50:35;;;;;;;3.10;2.45;;;;;;;;;;5059211;28;20029;-70
2023/08/17 09:53:02;;;;;;;4.10;2.30;;;;;;;;;;5045263;28;20028;-69
2023/08/17 09:55:31;;;;;;;3.42;2.53;;;;;;;;;;5049333;28;20479;-69
2023/08/17 09:57:58;;;;;;;2.83;2.58;;;;;;;;;;5067350;28;20490;-71
2023/08/17 10:00:25;;;;;;;4.70;2.60;;;;;;;;;;5042497;28;20040;-72
2023/08/17 10:02:51;;;;;;;5.00;2.53;;;;;;;;;;5043152;28;20480;-71
2023/08/17 10:05:19;;;;;;;3.47;2.60;;;;;;;;;;5052253;28;20025;-68
2023/08/17 10:07:50;;;;;;;5.32;2.45;;;;;;;;;;5041250;28;20416;-69
2023/08/17 10:10:19;;;;;;;5.13;2.53;;;;;;;;;;5048953;28;20032;-71
2023/08/17 10:12:48;;;;;;;4.13;2.90;;;;;;;;;;5043244;28;20036;-74
2023/08/17 10:15:16;;;;;;;4.53;2.85;;;;;;;;;;5046046;28;20444;-73
2023/08/17 10:17:50;;;;;;;3.25;2.72;;;;;;;;;;5054179;28;20036;-71
2023/08/17 10:20:17;;;;;;;5.30;3.10;;;;;;;;;;5053015;28;20036;-71
2023/08/17 10:23:03;;;;;;;4.30;2.60;;;;;;;;;;5040357;28;20036;-69
2023/08/17 10:25:29;;;;;;;4.18;2.80;;;;;;;;;;5044737;28;20032;-69
2023/08/17 10:27:55;;;;;;;7.88;3.30;;;;;;;;;;5052098;28;20090;-70
2023/08/17 10:30:22;;;;;;;4.90;3.10;;;;;;;;;;5052382;28;20107;-69
2023/08/17 10:32:48;;;;;;;4.53;3.00;;;;;;;;;;5053502;28;20393;-70
2023/08/17 10:35:15;;;;;;;3.13;2.65;;;;;;;;;;5052844;28;20734;-69
2023/08/17 10:37:41;;;;;;;6.68;3.10;;;;;;;;;;5052090;28;20024;-70
2023/08/17 10:40:08;;;;;;;7.63;2.78;;;;;;;;;;5055832;28;20097;-70
2023/08/17 10:42:39;;;;;;;3.67;2.67;;;;;;;;;;5058063;28;20415;-70
2023/08/17 10:45:31;;;;;;;5.80;2.70;;;;;;;;;;5054138;28;20393;-71
2023/08/17 10:48:06;;;;;;;5.97;2.70;;;;;;;;;;5051656;28;20036;-70
2023/08/17 10:50:35;;;;;;;;;;;;;;;;;;5057945;28;20040;-70
2023/08/17 10:53:12;;;;;;;6.22;2.90;;;;;;;;;;5055765;28;19916;-71
2023/08/17 10:55:41;;;;;;;4.22;2.83;;;;;;;;;;5070090;28;20460;-70
2023/08/17 10:58:08;;;;;;;3.80;2.78;;;;;;;;;;5056387;28;20028;-70
2023/08/17 11:00:36;;;;;;;5.22;3.13;;;;;;;;;;5070608;28;20442;-69
2023/08/17 11:03:09;;;;;;;4.63;3.15;;;;;;;;;;5049842;28;20224;-66
2023/08/17 11:05:40;;;;;;;4.70;3.03;;;;;;;;;;5051348;28;20031;-70
2023/08/17 11:08:09;;;;;;;4.47;3.00;;;;;;;;;;5051725;28;20403;-71
2023/08/17 11:10:35;;;;;;;4.07;3.40;;;;;;;;;;5054066;28;20043;-70
2023/08/17 11:13:02;;;;;;;3.70;2.80;;;;;;;;;;5053783;28;20032;-70
2023/08/17 11:15:44;;;;;;;7.88;2.80;;;;;;;;;;5059252;28;20036;-70
2023/08/17 11:18:11;;;;;;;6.85;3.10;;;;;;;;;;5054715;28;20242;-70
2023/08/17 11:20:38;;;;;;;4.78;3.00;;;;;;;;;;5054209;28;20020;-68
2023/08/17 11:23:05;;;;;;;7.43;2.60;;;;;;;;;;5049734;28;20025;-69
2023/08/17 11:25:32;;;;;;;6.13;2.88;;;;;;;;;;5068239;28;20039;-70
2023/08/17 11:27:58;;;;;;;4.85;2.65;;;;;;;;;;5053153;28;20078;-69
2023/08/17 11:30:25;;;;;;;3.70;2.65;;;;;;;;;;5052626;28;20031;-66
2023/08/17 11:32:52;;;;;;;4.50;2.40;;;;;;;;;;5051181;28;20052;-68
2023/08/17 11:35:18;;;;;;;5.32;2.60;;;;;;;;;;5052743;28;20040;-69
2023/08/17 11:37:44;;;;;;;7.07;2.65;;;;;;;;;;5051610;28;20032;-66
2023/08/17 11:40:13;;;;;;;3.00;2.50;;;;;;;;;;5050363;28;20354;-65
2023/08/17 11:42:40;;;;;;;4.30;3.13;;;;;;;;;;5054983;28;20025;-65
2023/08/17 11:45:09;;;;;;;3.95;2.50;;;;;;;;;;5050262;28;20123;-67
2023/08/17 11:47:35;;;;;;;4.93;2.80;;;;;;;;;;5053025;28;20029;-68
2023/08/17 11:50:05;;;;;;;4.18;2.30;;;;;;;;;;5053056;28;20032;-70
2023/08/17 11:52:32;;;;;;;2.92;2.30;;;;;;;;;;5053831;28;20028;-69
2023/08/17 11:54:59;;;;;;;3.33;2.40;;;;;;;;;;5060335;28;20131;-68
2023/08/17 11:57:26;;;;;;;3.33;2.63;;;;;;;;;;5050900;28;20119;-66
2023/08/17 11:59:58;;;;;;;2.60;2.40;;;;;;;;;;5052684;28;20028;-68
2023/08/17 12:02:24;;;;;;;3.03;2.47;;;;;;;;;;5054872;28;20032;-69
2023/08/17 12:04:51;;;;;;;3.35;2.35;;;;;;;;;;5057961;28;20079;-72
2023/08/17 12:07:18;;;;;;;4.38;2.53;;;;;;;;;;5059665;28;20488;-72
2023/08/17 12:09:44;;;;;;;6.93;3.33;;;;;;;;;;5058465;28;20028;-71
2023/08/17 12:12:11;;;;;;;4.85;2.60;;;;;;;;;;5057211;28;20108;-70
2023/08/17 12:14:37;;;;;;;3.15;2.55;;;;;;;;;;5055730;28;20093;-68
2023/08/17 12:17:04;;;;;;;4.15;2.65;;;;;;;;;;5055172;28;20118;-69
2023/08/17 12:19:32;;;;;;;5.60;2.92;;;;;;;;;;5071389;28;20025;-69
2023/08/17 12:21:59;;;;;;;4.18;2.60;;;;;;;;;;5050653;28;20472;-70
2023/08/17 12:24:25;;;;;;;4.13;2.67;;;;;;;;;;5050064;28;20097;-69
2023/08/17 12:26:51;;;;;;;5.93;3.25;;;;;;;;;;5057242;28;20482;-69
2023/08/17 12:29:17;;;;;;;4.90;2.80;;;;;;;;;;5052507;28;20108;-67
2023/08/17 12:31:45;;;;;;;4.72;2.70;;;;;;;;;;5053072;28;20296;-67
2023/08/17 12:34:11;;;;;;;4.10;2.67;;;;;;;;;;5053660;28;20028;-69
2023/08/17 12:36:38;;;;;;;3.25;2.80;;;;;;;;;;5056313;28;20079;-69
2023/08/17 12:39:05;;;;;;;3.92;2.83;;;;;;;;;;5052098;28;20044;-69
2023/08/17 12:41:31;;;;;;;4.68;3.13;;;;;;;;;;5050658;28;20066;-69
2023/08/17 12:43:59;;;;;;;4.72;2.90;;;;;;;;;;5057308;28;20025;-68
2023/08/17 12:46:25;;;;;;;4.57;3.50;;;;;;;;;;5053407;28;20465;-68
2023/08/17 12:48:51;;;;;;;5.30;3.25;;;;;;;;;;5059007;28;20032;-70
2023/08/17 12:51:18;;;;;;;4.30;2.92;;;;;;;;;;5053646;28;20473;-68
2023/08/17 12:53:44;;;;;;;5.70;3.20;;;;;;;;;;5056447;28;20052;-69
2023/08/17 12:56:10;;;;;;;3.42;2.58;;;;;;;;;;5057772;28;20064;-69
2023/08/17 12:58:36;;;;;;;3.33;3.03;;;;;;;;;;5070074;28;20071;-69
2023/08/17 13:01:03;;;;;;;4.60;2.92;;;;;;;;;;5049736;28;20047;-70
2023/08/17 13:03:29;;;;;;;3.72;2.83;;;;;;;;;;5053668;28;20396;-69
2023/08/17 13:05:55;;;;;;;3.38;2.85;;;;;;;;;;5071373;28;20340;-69
2023/08/17 13:08:22;;;;;;;3.90;3.08;;;;;;;;;;5047644;28;20028;-69
2023/08/17 13:10:48;;;;;;;5.68;3.03;;;;;;;;;;5052209;28;20037;-69
2023/08/17 13:13:14;;;;;;;4.90;3.38;;;;;;;;;;5056220;28;20043;-68
2023/08/17 13:15:41;;;;;;;3.63;2.83;;;;;;;;;;5050975;28;20497;-69
2023/08/17 13:18:08;;;;;;;5.95;3.50;;;;;;;;;;5046131;28;20531;-69
2023/08/17 13:20:35;;;;;;;6.25;3.15;;;;;;;;;;5051176;28;20024;-69
2023/08/17 13:23:05;;;;;;;6.30;3.13;;;;;;;;;;5055407;28;20039;-69
2023/08/17 13:25:32;;;;;;;3.90;3.20;;;;;;;;;;5058561;28;20086;-70
2023/08/17 13:27:58;;;;;;;5.07;3.22;;;;;;;;;;5066964;28;20520;-69
2023/08/17 13:30:25;;;;;;;3.58;2.95;;;;;;;;;;5047188;28;20036;-71
2023/08/17 13:32:52;;;;;;;6.60;3.53;;;;;;;;;;5069436;28;20033;-72
2023/08/17 13:35:18;;;;;;;4.88;3.17;;;;;;;;;;5049965;28;20087;-72
2023/08/17 13:37:45;;;;;;;8.15;3.60;;;;;;;;;;5053614;28;20429;-70
2023/08/17 13:40:11;;;;;;;5.10;3.03;;;;;;;;;;5055391;28;20116;-71
2023/08/17 13:42:38;;;;;;;5.00;3.05;;;;;;;;;;5055417;28;20445;-71
2023/08/17 13:45:04;;;;;;;6.20;3.50;;;;;;;;;;5050865;28;20025;-69
2023/08/17 13:47:31;;;;;;;6.55;3.13;;;;;;;;;;5049846;28;20489;-69
2023/08/17 13:49:57;;;;;;;8.13;3.33;;;;;;;;;;5053352;28;20029;-69
2023/08/17 13:52:23;;;;;;;5.50;3.25;;;;;;;;;;5051425;28;20032;-69
2023/08/17 13:54:50;;;;;;;6.07;3.20;;;;;;;;;;5049542;28;20523;-69
2023/08/17 13:57:17;;;;;;;5.05;3.00;;;;;;;;;;5054860;28;20028;-69
2023/08/17 13:59:43;;;;;;;4.80;3.67;;;;;;;;;;5055636;28;20068;-69
2023/08/17 14:02:09;;;;;;;4.55;3.20;;;;;;;;;;5052272;28;20086;-68
2023/08/17 14:04:35;;;;;;;4.60;3.47;;;;;;;;;;5050347;28;20035;-70
2023/08/17 14:07:02;;;;;;;5.82;3.10;;;;;;;;;;5053997;28;20141;-70
2023/08/17 14:09:28;;;;;;;4.13;3.10;;;;;;;;;;5052594;28;20032;-70
2023/08/17 14:11:54;;;;;;;4.18;2.70;;;;;;;;;;5054123;28;20024;-70
2023/08/17 14:14:20;;;;;;;3.90;3.45;;;;;;;;;;5052684;28;20044;-69
2023/08/17 14:16:47;;;;;;;4.75;2.83;;;;;;;;;;5059972;28;20198;-70
2023/08/17 14:19:13;;;;;;;5.28;3.05;;;;;;;;;;5055502;28;20381;-71
2023/08/17 14:21:39;;;;;;;5.70;2.78;;;;;;;;;;5052433;28;20169;-70
2023/08/17 14:24:07;;;;;;;3.70;2.90;;;;;;;;;;5068056;28;20029;-68
2023/08/17 14:26:34;;;;;;;6.75;3.10;;;;;;;;;;5052413;28;20036;-71
2023/08/17 14:29:00;;;;;;;3.65;2.72;;;;;;;;;;5047085;28;20065;-69
2023/08/17 14:31:27;;;;;;;5.07;3.67;;;;;;;;;;5053074;28;20351;-67
2023/08/17 14:33:53;;;;;;;4.57;2.70;;;;;;;;;;5049536;28;20037;-68
2023/08/17 14:36:19;;;;;;;3.33;2.60;;;;;;;;;;5051616;28;20048;-68
2023/08/17 14:38:45;;;;;;;5.88;3.00;;;;;;;;;;5054355;28;20291;-70
2023/08/17 14:41:11;;;;;;;3.92;2.83;;;;;;;;;;5052893;28;20374;-71